Chesterfield Inlet Airport
CYCS : rendu visible

Aérodrome :











RETROUVEZ-NOUS SUR...

 
LOGIN :

S'inscrire | Disclaimer

   EN    FR    IT 

 









Légende :    VFR   VFR Marginal   IFR   IFR Intensif   IFR Très Intensif
Visi : 
Plafond : 
>= 8 km
>= 3000ft
5 à 8 km
1000 à 3000 ft
1500m à 5 km
500 à 1000 ft
800 à 1500m
200 à 500 ft
< 800m
< 200 ft
Symboles :   Orages  Brouillard  Fortes neiges  Fortes précipitations  Vent > 20 kt






- Altitude de l'aérodrome : 32 ft
- Code IATA : YCS


CYCS - Chesterfield Inlet

DERNIER METAR :
  • 261711Z 29013KT 15SM SCT006 SCT150 M06/M10 A3005 RMK SF3AC1 AC TR SLP178

METARs EXPIRÉS :
  • 261600Z 28015KT 15SM DRSN SCT150 M06/M11 A3005 RMK AC4 SLP177
  • 261556Z 29015KT 15SM DRSN SCT150 M06/M10 A3004 RMK AC4 SLP176
  • 261500Z 29015KT 15SM IC DRSN SCT160 M07/M11 A3004 RMK AC3 VIS W 8 SLP175

TAF N/A
FIR CZEG / Amérique du Nord



MET'MAP, la Météo Aéronautique d'un coup d'oeil ! - Copyright ORBIFLY Décembre 2007 - Disclaimer

ORBIFLY MET'MAP TEAM :

Programmation & Développement : Alexandra Zaïnal
Sur une idée originale de : Baudouin d'Aumeries
Assistance à la programmation : Marc-Olivier Méhu
Soutien technique & logistique : Manuel Goepfert

Contact : metmap@orbifly.com




SOURCES & CREDITS :

   NOAA       Earth
Advisory